sensor_id;sensor_type;location;lat;lon;timestamp;P1;durP1;ratioP1;P2;durP2;ratioP2
8831;SDS011;4452;50.756;4.472;2023-05-14T00:01:52;132.77;;;56.90;;
8831;SDS011;4452;50.756;4.472;2023-05-14T00:04:18;140.85;;;59.05;;
8831;SDS011;4452;50.756;4.472;2023-05-14T00:06:44;132.48;;;57.45;;
8831;SDS011;4452;50.756;4.472;2023-05-14T00:09:10;131.10;;;56.55;;
8831;SDS011;4452;50.756;4.472;2023-05-14T00:11:37;134.73;;;59.30;;
8831;SDS011;4452;50.756;4.472;2023-05-14T00:14:03;132.82;;;58.00;;
8831;SDS011;4452;50.756;4.472;2023-05-14T00:16:28;135.65;;;60.83;;
8831;SDS011;4452;50.756;4.472;2023-05-14T00:18:54;144.00;;;58.15;;
8831;SDS011;4452;50.756;4.472;2023-05-14T00:21:20;123.22;;;58.33;;
8831;SDS011;4452;50.756;4.472;2023-05-14T00:23:45;137.18;;;58.47;;
8831;SDS011;4452;50.756;4.472;2023-05-14T00:26:11;129.77;;;56.17;;
8831;SDS011;4452;50.756;4.472;2023-05-14T00:28:37;140.85;;;60.17;;
8831;SDS011;4452;50.756;4.472;2023-05-14T00:31:03;126.00;;;56.50;;
8831;SDS011;4452;50.756;4.472;2023-05-14T00:33:28;134.88;;;59.13;;
8831;SDS011;4452;50.756;4.472;2023-05-14T00:35:54;129.48;;;57.63;;
8831;SDS011;4452;50.756;4.472;2023-05-14T00:38:20;139.77;;;58.85;;
8831;SDS011;4452;50.756;4.472;2023-05-14T00:40:48;124.90;;;57.47;;
8831;SDS011;4452;50.756;4.472;2023-05-14T00:43:19;137.30;;;59.17;;
8831;SDS011;4452;50.756;4.472;2023-05-14T00:45:46;131.38;;;54.92;;
8831;SDS011;4452;50.756;4.472;2023-05-14T00:48:15;140.38;;;61.33;;
8831;SDS011;4452;50.756;4.472;2023-05-14T00:50:41;142.32;;;61.25;;
8831;SDS011;4452;50.756;4.472;2023-05-14T00:53:07;144.15;;;59.67;;
8831;SDS011;4452;50.756;4.472;2023-05-14T00:55:38;146.27;;;60.72;;
8831;SDS011;4452;50.756;4.472;2023-05-14T00:58:09;149.95;;;64.47;;
8831;SDS011;4452;50.756;4.472;2023-05-14T01:00:37;153.68;;;59.58;;
8831;SDS011;4452;50.756;4.472;2023-05-14T01:03:03;153.27;;;62.00;;
8831;SDS011;4452;50.756;4.472;2023-05-14T01:10:59;150.02;;;59.60;;
8831;SDS011;4452;50.756;4.472;2023-05-14T01:16:07;134.82;;;54.47;;
8831;SDS011;4452;50.756;4.472;2023-05-14T01:18:38;139.68;;;56.53;;
8831;SDS011;4452;50.756;4.472;2023-05-14T01:21:17;151.10;;;59.30;;
8831;SDS011;4452;50.756;4.472;2023-05-14T01:24:04;138.40;;;53.20;;
8831;SDS011;4452;50.756;4.472;2023-05-14T01:26:31;158.45;;;61.35;;
8831;SDS011;4452;50.756;4.472;2023-05-14T01:29:18;156.82;;;60.22;;
8831;SDS011;4452;50.756;4.472;2023-05-14T01:31:46;145.40;;;58.53;;
8831;SDS011;4452;50.756;4.472;2023-05-14T01:34:14;175.10;;;64.85;;
8831;SDS011;4452;50.756;4.472;2023-05-14T01:36:43;167.27;;;60.97;;
8831;SDS011;4452;50.756;4.472;2023-05-14T01:39:11;147.73;;;58.13;;
8831;SDS011;4452;50.756;4.472;2023-05-14T01:41:39;167.68;;;62.63;;
8831;SDS011;4452;50.756;4.472;2023-05-14T01:44:07;159.55;;;62.22;;
8831;SDS011;4452;50.756;4.472;2023-05-14T01:46:33;162.88;;;60.63;;
8831;SDS011;4452;50.756;4.472;2023-05-14T01:48:59;166.90;;;63.78;;
8831;SDS011;4452;50.756;4.472;2023-05-14T01:51:25;187.55;;;66.88;;
8831;SDS011;4452;50.756;4.472;2023-05-14T01:53:51;179.00;;;63.03;;
8831;SDS011;4452;50.756;4.472;2023-05-14T01:56:18;180.52;;;65.85;;
8831;SDS011;4452;50.756;4.472;2023-05-14T01:58:45;187.90;;;66.53;;
8831;SDS011;4452;50.756;4.472;2023-05-14T02:01:11;176.35;;;64.57;;
8831;SDS011;4452;50.756;4.472;2023-05-14T02:03:37;176.25;;;65.72;;
8831;SDS011;4452;50.756;4.472;2023-05-14T02:06:02;171.93;;;64.32;;
8831;SDS011;4452;50.756;4.472;2023-05-14T02:08:28;169.07;;;62.22;;
8831;SDS011;4452;50.756;4.472;2023-05-14T02:10:54;164.50;;;60.92;;
8831;SDS011;4452;50.756;4.472;2023-05-14T02:13:19;155.88;;;59.70;;
8831;SDS011;4452;50.756;4.472;2023-05-14T02:15:45;179.98;;;65.88;;
8831;SDS011;4452;50.756;4.472;2023-05-14T02:18:11;143.13;;;55.10;;
8831;SDS011;4452;50.756;4.472;2023-05-14T02:20:36;110.32;;;44.47;;
8831;SDS011;4452;50.756;4.472;2023-05-14T02:23:02;166.02;;;61.63;;
8831;SDS011;4452;50.756;4.472;2023-05-14T02:25:28;155.48;;;60.00;;
8831;SDS011;4452;50.756;4.472;2023-05-14T02:27:53;159.70;;;59.55;;
8831;SDS011;4452;50.756;4.472;2023-05-14T02:30:20;157.38;;;56.92;;
8831;SDS011;4452;50.756;4.472;2023-05-14T02:32:46;179.80;;;65.63;;
8831;SDS011;4452;50.756;4.472;2023-05-14T02:35:11;164.88;;;62.55;;
8831;SDS011;4452;50.756;4.472;2023-05-14T02:37:37;169.05;;;62.88;;
8831;SDS011;4452;50.756;4.472;2023-05-14T02:40:03;169.38;;;64.10;;
8831;SDS011;4452;50.756;4.472;2023-05-14T02:42:29;172.10;;;63.92;;
8831;SDS011;4452;50.756;4.472;2023-05-14T02:44:55;169.93;;;65.78;;
8831;SDS011;4452;50.756;4.472;2023-05-14T02:47:20;169.63;;;60.67;;
8831;SDS011;4452;50.756;4.472;2023-05-14T02:49:46;164.95;;;63.22;;
8831;SDS011;4452;50.756;4.472;2023-05-14T02:52:12;156.23;;;57.80;;
8831;SDS011;4452;50.756;4.472;2023-05-14T02:54:37;133.20;;;49.95;;
8831;SDS011;4452;50.756;4.472;2023-05-14T02:57:03;168.40;;;62.58;;
8831;SDS011;4452;50.756;4.472;2023-05-14T02:59:29;155.73;;;57.55;;
8831;SDS011;4452;50.756;4.472;2023-05-14T03:01:55;179.30;;;63.63;;
8831;SDS011;4452;50.756;4.472;2023-05-14T03:04:21;171.68;;;64.90;;
8831;SDS011;4452;50.756;4.472;2023-05-14T03:06:47;182.98;;;66.93;;
8831;SDS011;4452;50.756;4.472;2023-05-14T03:09:13;169.90;;;60.00;;
8831;SDS011;4452;50.756;4.472;2023-05-14T03:11:38;178.35;;;65.93;;
8831;SDS011;4452;50.756;4.472;2023-05-14T03:14:04;167.98;;;61.58;;
8831;SDS011;4452;50.756;4.472;2023-05-14T03:16:30;165.27;;;62.00;;
8831;SDS011;4452;50.756;4.472;2023-05-14T03:18:55;163.93;;;59.05;;
8831;SDS011;4452;50.756;4.472;2023-05-14T03:21:21;170.10;;;60.67;;
8831;SDS011;4452;50.756;4.472;2023-05-14T03:23:47;156.98;;;60.30;;
8831;SDS011;4452;50.756;4.472;2023-05-14T03:26:12;159.68;;;60.00;;
8831;SDS011;4452;50.756;4.472;2023-05-14T03:28:38;154.80;;;59.55;;
8831;SDS011;4452;50.756;4.472;2023-05-14T03:31:04;160.65;;;60.53;;
8831;SDS011;4452;50.756;4.472;2023-05-14T03:33:30;161.15;;;60.97;;
8831;SDS011;4452;50.756;4.472;2023-05-14T03:35:56;152.77;;;59.28;;
8831;SDS011;4452;50.756;4.472;2023-05-14T03:38:22;154.85;;;56.33;;
8831;SDS011;4452;50.756;4.472;2023-05-14T03:40:47;161.77;;;60.80;;
8831;SDS011;4452;50.756;4.472;2023-05-14T03:43:13;148.02;;;58.25;;
8831;SDS011;4452;50.756;4.472;2023-05-14T03:45:39;153.10;;;57.60;;
8831;SDS011;4452;50.756;4.472;2023-05-14T03:48:04;144.48;;;55.42;;
8831;SDS011;4452;50.756;4.472;2023-05-14T03:50:30;147.68;;;55.22;;
8831;SDS011;4452;50.756;4.472;2023-05-14T03:52:56;143.52;;;54.80;;
8831;SDS011;4452;50.756;4.472;2023-05-14T03:55:22;150.07;;;58.22;;
8831;SDS011;4452;50.756;4.472;2023-05-14T03:57:47;150.13;;;58.47;;
8831;SDS011;4452;50.756;4.472;2023-05-14T04:00:13;131.50;;;48.60;;
8831;SDS011;4452;50.756;4.472;2023-05-14T04:02:39;154.80;;;56.00;;
8831;SDS011;4452;50.756;4.472;2023-05-14T04:05:06;137.05;;;54.72;;
8831;SDS011;4452;50.756;4.472;2023-05-14T04:07:31;153.07;;;57.00;;
8831;SDS011;4452;50.756;4.472;2023-05-14T04:09:57;146.57;;;55.30;;
8831;SDS011;4452;50.756;4.472;2023-05-14T04:12:24;151.43;;;58.88;;
8831;SDS011;4452;50.756;4.472;2023-05-14T04:14:50;132.00;;;50.05;;
8831;SDS011;4452;50.756;4.472;2023-05-14T04:17:16;149.07;;;57.42;;
8831;SDS011;4452;50.756;4.472;2023-05-14T04:19:42;141.80;;;56.92;;
8831;SDS011;4452;50.756;4.472;2023-05-14T04:22:08;158.10;;;57.83;;
8831;SDS011;4452;50.756;4.472;2023-05-14T04:24:33;125.47;;;51.95;;
8831;SDS011;4452;50.756;4.472;2023-05-14T04:26:59;123.10;;;49.50;;
8831;SDS011;4452;50.756;4.472;2023-05-14T04:29:24;141.18;;;55.38;;
8831;SDS011;4452;50.756;4.472;2023-05-14T04:31:50;130.98;;;51.78;;
8831;SDS011;4452;50.756;4.472;2023-05-14T04:34:16;127.85;;;50.03;;
8831;SDS011;4452;50.756;4.472;2023-05-14T04:36:41;129.10;;;53.35;;
8831;SDS011;4452;50.756;4.472;2023-05-14T04:39:07;141.05;;;55.15;;
8831;SDS011;4452;50.756;4.472;2023-05-14T04:41:36;136.65;;;54.03;;
8831;SDS011;4452;50.756;4.472;2023-05-14T04:44:02;134.88;;;54.10;;
8831;SDS011;4452;50.756;4.472;2023-05-14T04:46:28;128.65;;;49.63;;
8831;SDS011;4452;50.756;4.472;2023-05-14T04:48:54;125.40;;;46.55;;
8831;SDS011;4452;50.756;4.472;2023-05-14T04:51:20;135.77;;;52.38;;
8831;SDS011;4452;50.756;4.472;2023-05-14T04:53:46;129.35;;;52.95;;
8831;SDS011;4452;50.756;4.472;2023-05-14T04:56:12;124.40;;;50.92;;
8831;SDS011;4452;50.756;4.472;2023-05-14T04:58:38;127.57;;;54.28;;
8831;SDS011;4452;50.756;4.472;2023-05-14T05:01:04;129.93;;;54.42;;
8831;SDS011;4452;50.756;4.472;2023-05-14T05:03:30;123.70;;;52.03;;
8831;SDS011;4452;50.756;4.472;2023-05-14T05:05:56;132.38;;;52.78;;
8831;SDS011;4452;50.756;4.472;2023-05-14T05:08:22;125.78;;;52.42;;
8831;SDS011;4452;50.756;4.472;2023-05-14T05:10:47;123.20;;;48.95;;
8831;SDS011;4452;50.756;4.472;2023-05-14T05:13:13;117.63;;;50.10;;
8831;SDS011;4452;50.756;4.472;2023-05-14T05:15:41;112.43;;;49.13;;
8831;SDS011;4452;50.756;4.472;2023-05-14T05:18:07;99.22;;;40.67;;
8831;SDS011;4452;50.756;4.472;2023-05-14T05:20:32;109.40;;;43.35;;
8831;SDS011;4452;50.756;4.472;2023-05-14T05:22:58;114.93;;;48.63;;
8831;SDS011;4452;50.756;4.472;2023-05-14T05:25:24;111.97;;;50.90;;
8831;SDS011;4452;50.756;4.472;2023-05-14T05:27:49;111.88;;;46.95;;
8831;SDS011;4452;50.756;4.472;2023-05-14T05:30:15;120.40;;;50.70;;
8831;SDS011;4452;50.756;4.472;2023-05-14T05:32:41;118.95;;;49.58;;
8831;SDS011;4452;50.756;4.472;2023-05-14T05:35:06;109.43;;;47.22;;
8831;SDS011;4452;50.756;4.472;2023-05-14T05:37:32;103.57;;;45.03;;
8831;SDS011;4452;50.756;4.472;2023-05-14T05:39:58;108.97;;;47.00;;
8831;SDS011;4452;50.756;4.472;2023-05-14T05:42:24;104.72;;;44.90;;
8831;SDS011;4452;50.756;4.472;2023-05-14T05:44:50;101.43;;;45.58;;
8831;SDS011;4452;50.756;4.472;2023-05-14T05:47:15;106.50;;;45.20;;
8831;SDS011;4452;50.756;4.472;2023-05-14T05:49:41;82.45;;;39.13;;
8831;SDS011;4452;50.756;4.472;2023-05-14T05:52:07;98.75;;;42.40;;
8831;SDS011;4452;50.756;4.472;2023-05-14T05:54:33;104.20;;;45.83;;
8831;SDS011;4452;50.756;4.472;2023-05-14T05:56:59;101.72;;;45.08;;
8831;SDS011;4452;50.756;4.472;2023-05-14T05:59:24;98.93;;;45.97;;
8831;SDS011;4452;50.756;4.472;2023-05-14T06:01:50;98.40;;;42.85;;
8831;SDS011;4452;50.756;4.472;2023-05-14T06:04:16;96.03;;;43.47;;
8831;SDS011;4452;50.756;4.472;2023-05-14T06:06:42;98.20;;;43.65;;
8831;SDS011;4452;50.756;4.472;2023-05-14T06:09:07;87.82;;;39.95;;
8831;SDS011;4452;50.756;4.472;2023-05-14T06:11:33;85.18;;;36.97;;
8831;SDS011;4452;50.756;4.472;2023-05-14T06:13:59;78.90;;;38.17;;
8831;SDS011;4452;50.756;4.472;2023-05-14T06:16:25;86.07;;;36.72;;
8831;SDS011;4452;50.756;4.472;2023-05-14T06:18:51;92.03;;;41.92;;
8831;SDS011;4452;50.756;4.472;2023-05-14T06:21:18;88.43;;;39.33;;
8831;SDS011;4452;50.756;4.472;2023-05-14T06:23:44;94.40;;;40.42;;
8831;SDS011;4452;50.756;4.472;2023-05-14T06:26:09;94.90;;;41.83;;
8831;SDS011;4452;50.756;4.472;2023-05-14T06:28:35;95.78;;;42.40;;
8831;SDS011;4452;50.756;4.472;2023-05-14T06:31:01;96.70;;;43.47;;
8831;SDS011;4452;50.756;4.472;2023-05-14T06:33:26;93.25;;;42.30;;
8831;SDS011;4452;50.756;4.472;2023-05-14T06:35:58;98.68;;;43.92;;
8831;SDS011;4452;50.756;4.472;2023-05-14T06:38:26;99.20;;;43.60;;
8831;SDS011;4452;50.756;4.472;2023-05-14T06:40:53;95.20;;;40.10;;
8831;SDS011;4452;50.756;4.472;2023-05-14T06:43:21;89.10;;;39.00;;
8831;SDS011;4452;50.756;4.472;2023-05-14T06:45:50;99.07;;;42.33;;
8831;SDS011;4452;50.756;4.472;2023-05-14T06:48:19;82.72;;;33.88;;
8831;SDS011;4452;50.756;4.472;2023-05-14T06:50:47;98.57;;;43.00;;
8831;SDS011;4452;50.756;4.472;2023-05-14T06:53:16;103.15;;;43.85;;
8831;SDS011;4452;50.756;4.472;2023-05-14T06:55:43;99.78;;;45.22;;
8831;SDS011;4452;50.756;4.472;2023-05-14T06:58:11;87.50;;;41.08;;
8831;SDS011;4452;50.756;4.472;2023-05-14T07:00:37;105.03;;;45.17;;
8831;SDS011;4452;50.756;4.472;2023-05-14T07:03:03;103.35;;;44.47;;
8831;SDS011;4452;50.756;4.472;2023-05-14T07:05:29;99.03;;;44.28;;
8831;SDS011;4452;50.756;4.472;2023-05-14T07:07:55;94.20;;;42.60;;
8831;SDS011;4452;50.756;4.472;2023-05-14T07:10:21;92.68;;;39.90;;
8831;SDS011;4452;50.756;4.472;2023-05-14T07:12:47;91.55;;;40.17;;
8831;SDS011;4452;50.756;4.472;2023-05-14T07:15:13;91.90;;;43.15;;
8831;SDS011;4452;50.756;4.472;2023-05-14T07:17:39;77.90;;;33.65;;
8831;SDS011;4452;50.756;4.472;2023-05-14T07:20:05;82.25;;;38.30;;
8831;SDS011;4452;50.756;4.472;2023-05-14T07:22:31;62.22;;;30.08;;
8831;SDS011;4452;50.756;4.472;2023-05-14T07:24:57;82.38;;;39.65;;
8831;SDS011;4452;50.756;4.472;2023-05-14T07:27:22;57.08;;;28.88;;
8831;SDS011;4452;50.756;4.472;2023-05-14T07:29:48;80.35;;;35.08;;
8831;SDS011;4452;50.756;4.472;2023-05-14T07:32:14;83.82;;;36.70;;
8831;SDS011;4452;50.756;4.472;2023-05-14T07:34:40;78.45;;;35.30;;
8831;SDS011;4452;50.756;4.472;2023-05-14T07:37:06;69.15;;;30.67;;
8831;SDS011;4452;50.756;4.472;2023-05-14T07:39:32;78.32;;;36.83;;
8831;SDS011;4452;50.756;4.472;2023-05-14T07:41:57;89.25;;;39.05;;
8831;SDS011;4452;50.756;4.472;2023-05-14T07:44:24;78.55;;;37.35;;
8831;SDS011;4452;50.756;4.472;2023-05-14T07:46:50;54.80;;;27.80;;
8831;SDS011;4452;50.756;4.472;2023-05-14T07:49:15;68.65;;;28.73;;
8831;SDS011;4452;50.756;4.472;2023-05-14T07:51:41;67.18;;;31.13;;
8831;SDS011;4452;50.756;4.472;2023-05-14T07:54:07;91.60;;;34.40;;
8831;SDS011;4452;50.756;4.472;2023-05-14T07:56:32;95.43;;;40.42;;
8831;SDS011;4452;50.756;4.472;2023-05-14T07:58:58;81.68;;;38.63;;
8831;SDS011;4452;50.756;4.472;2023-05-14T08:01:24;93.18;;;41.58;;
8831;SDS011;4452;50.756;4.472;2023-05-14T08:03:50;69.65;;;32.63;;
8831;SDS011;4452;50.756;4.472;2023-05-14T08:06:16;79.65;;;36.03;;
8831;SDS011;4452;50.756;4.472;2023-05-14T08:08:41;86.72;;;38.67;;
8831;SDS011;4452;50.756;4.472;2023-05-14T08:11:07;91.20;;;40.45;;
8831;SDS011;4452;50.756;4.472;2023-05-14T08:13:33;86.72;;;38.88;;
8831;SDS011;4452;50.756;4.472;2023-05-14T08:15:58;91.63;;;38.22;;
8831;SDS011;4452;50.756;4.472;2023-05-14T08:18:24;78.75;;;37.45;;
8831;SDS011;4452;50.756;4.472;2023-05-14T08:20:50;69.35;;;33.65;;
8831;SDS011;4452;50.756;4.472;2023-05-14T08:23:16;59.50;;;27.83;;
8831;SDS011;4452;50.756;4.472;2023-05-14T08:25:41;58.90;;;30.23;;
8831;SDS011;4452;50.756;4.472;2023-05-14T08:28:07;75.80;;;36.78;;
8831;SDS011;4452;50.756;4.472;2023-05-14T08:30:33;70.43;;;33.88;;
8831;SDS011;4452;50.756;4.472;2023-05-14T08:32:58;72.63;;;36.05;;
8831;SDS011;4452;50.756;4.472;2023-05-14T08:35:24;72.97;;;36.25;;
8831;SDS011;4452;50.756;4.472;2023-05-14T08:37:50;75.60;;;37.30;;
8831;SDS011;4452;50.756;4.472;2023-05-14T08:40:16;70.53;;;34.25;;
8831;SDS011;4452;50.756;4.472;2023-05-14T08:42:42;71.60;;;36.47;;
8831;SDS011;4452;50.756;4.472;2023-05-14T08:45:51;71.40;;;36.08;;
8831;SDS011;4452;50.756;4.472;2023-05-14T08:47:59;81.47;;;37.90;;
8831;SDS011;4452;50.756;4.472;2023-05-14T08:50:32;77.68;;;38.00;;
8831;SDS011;4452;50.756;4.472;2023-05-14T08:52:59;60.60;;;31.88;;
8831;SDS011;4452;50.756;4.472;2023-05-14T08:55:25;72.30;;;36.63;;
8831;SDS011;4452;50.756;4.472;2023-05-14T08:57:52;76.13;;;37.63;;
8831;SDS011;4452;50.756;4.472;2023-05-14T09:00:18;71.53;;;37.22;;
8831;SDS011;4452;50.756;4.472;2023-05-14T09:02:44;69.78;;;33.45;;
8831;SDS011;4452;50.756;4.472;2023-05-14T09:05:11;66.00;;;36.05;;
8831;SDS011;4452;50.756;4.472;2023-05-14T09:07:38;68.65;;;34.40;;
8831;SDS011;4452;50.756;4.472;2023-05-14T09:10:04;63.25;;;34.55;;
8831;SDS011;4452;50.756;4.472;2023-05-14T09:12:30;61.50;;;33.22;;
8831;SDS011;4452;50.756;4.472;2023-05-14T09:14:55;65.78;;;34.35;;
8831;SDS011;4452;50.756;4.472;2023-05-14T09:17:21;58.63;;;30.00;;
8831;SDS011;4452;50.756;4.472;2023-05-14T09:19:50;55.67;;;31.85;;
8831;SDS011;4452;50.756;4.472;2023-05-14T09:22:17;57.00;;;30.50;;
8831;SDS011;4452;50.756;4.472;2023-05-14T09:24:44;54.95;;;32.67;;
8831;SDS011;4452;50.756;4.472;2023-05-14T09:27:19;51.50;;;30.30;;
8831;SDS011;4452;50.756;4.472;2023-05-14T09:29:46;54.10;;;29.38;;
8831;SDS011;4452;50.756;4.472;2023-05-14T09:32:12;50.65;;;29.95;;
8831;SDS011;4452;50.756;4.472;2023-05-14T09:34:38;51.95;;;28.67;;
8831;SDS011;4452;50.756;4.472;2023-05-14T09:37:05;42.25;;;28.23;;
8831;SDS011;4452;50.756;4.472;2023-05-14T09:39:32;50.03;;;28.85;;
8831;SDS011;4452;50.756;4.472;2023-05-14T09:42:00;44.75;;;27.67;;
8831;SDS011;4452;50.756;4.472;2023-05-14T09:44:26;45.97;;;28.52;;
8831;SDS011;4452;50.756;4.472;2023-05-14T09:46:52;41.70;;;26.40;;
8831;SDS011;4452;50.756;4.472;2023-05-14T09:49:18;48.65;;;27.45;;
8831;SDS011;4452;50.756;4.472;2023-05-14T09:51:44;43.35;;;26.65;;
8831;SDS011;4452;50.756;4.472;2023-05-14T09:54:10;44.75;;;27.20;;
8831;SDS011;4452;50.756;4.472;2023-05-14T09:56:36;46.90;;;26.90;;
8831;SDS011;4452;50.756;4.472;2023-05-14T09:59:03;39.72;;;23.20;;
8831;SDS011;4452;50.756;4.472;2023-05-14T10:01:30;43.88;;;26.90;;
8831;SDS011;4452;50.756;4.472;2023-05-14T10:03:59;39.63;;;23.05;;
8831;SDS011;4452;50.756;4.472;2023-05-14T10:06:29;41.08;;;24.23;;
8831;SDS011;4452;50.756;4.472;2023-05-14T10:08:59;33.33;;;20.52;;
8831;SDS011;4452;50.756;4.472;2023-05-14T10:11:30;36.83;;;24.92;;
8831;SDS011;4452;50.756;4.472;2023-05-14T10:14:02;42.67;;;23.33;;
8831;SDS011;4452;50.756;4.472;2023-05-14T10:16:36;41.70;;;24.98;;
8831;SDS011;4452;50.756;4.472;2023-05-14T10:19:07;38.05;;;23.35;;
8831;SDS011;4452;50.756;4.472;2023-05-14T10:21:35;39.63;;;24.83;;
8831;SDS011;4452;50.756;4.472;2023-05-14T10:24:02;34.80;;;23.00;;
8831;SDS011;4452;50.756;4.472;2023-05-14T10:26:29;36.65;;;23.50;;
8831;SDS011;4452;50.756;4.472;2023-05-14T10:28:56;34.15;;;22.98;;
8831;SDS011;4452;50.756;4.472;2023-05-14T10:31:31;35.25;;;24.25;;
8831;SDS011;4452;50.756;4.472;2023-05-14T10:42:07;34.97;;;23.33;;
8831;SDS011;4452;50.756;4.472;2023-05-14T10:44:52;34.45;;;23.27;;
8831;SDS011;4452;50.756;4.472;2023-05-14T10:47:25;33.05;;;22.60;;
8831;SDS011;4452;50.756;4.472;2023-05-14T10:50:00;32.75;;;21.80;;
8831;SDS011;4452;50.756;4.472;2023-05-14T10:52:27;33.05;;;23.08;;
8831;SDS011;4452;50.756;4.472;2023-05-14T10:54:54;29.90;;;22.63;;
8831;SDS011;4452;50.756;4.472;2023-05-14T10:57:25;33.67;;;21.95;;
8831;SDS011;4452;50.756;4.472;2023-05-14T10:59:55;33.50;;;21.55;;
8831;SDS011;4452;50.756;4.472;2023-05-14T11:07:43;33.78;;;22.45;;
8831;SDS011;4452;50.756;4.472;2023-05-14T11:10:11;30.92;;;20.92;;
8831;SDS011;4452;50.756;4.472;2023-05-14T11:12:43;34.47;;;22.98;;
8831;SDS011;4452;50.756;4.472;2023-05-14T11:15:11;34.90;;;23.40;;
8831;SDS011;4452;50.756;4.472;2023-05-14T11:17:42;35.00;;;23.67;;
8831;SDS011;4452;50.756;4.472;2023-05-14T11:20:09;28.50;;;22.50;;
8831;SDS011;4452;50.756;4.472;2023-05-14T11:22:36;33.15;;;22.42;;
8831;SDS011;4452;50.756;4.472;2023-05-14T11:25:03;34.35;;;22.92;;
8831;SDS011;4452;50.756;4.472;2023-05-14T11:27:30;31.25;;;19.80;;
8831;SDS011;4452;50.756;4.472;2023-05-14T11:29:58;31.45;;;22.70;;
8831;SDS011;4452;50.756;4.472;2023-05-14T11:32:25;28.67;;;21.45;;
8831;SDS011;4452;50.756;4.472;2023-05-14T11:34:51;30.65;;;21.50;;
8831;SDS011;4452;50.756;4.472;2023-05-14T11:37:16;32.03;;;21.90;;
8831;SDS011;4452;50.756;4.472;2023-05-14T11:39:49;31.45;;;21.50;;
8831;SDS011;4452;50.756;4.472;2023-05-14T11:42:17;30.63;;;22.00;;
8831;SDS011;4452;50.756;4.472;2023-05-14T11:44:50;30.33;;;21.67;;
8831;SDS011;4452;50.756;4.472;2023-05-14T11:47:18;28.73;;;22.13;;
8831;SDS011;4452;50.756;4.472;2023-05-14T11:49:46;32.20;;;22.88;;
8831;SDS011;4452;50.756;4.472;2023-05-14T11:52:14;33.50;;;21.67;;
8831;SDS011;4452;50.756;4.472;2023-05-14T11:54:43;30.15;;;20.98;;
8831;SDS011;4452;50.756;4.472;2023-05-14T11:57:10;35.97;;;19.67;;
8831;SDS011;4452;50.756;4.472;2023-05-14T11:59:37;29.13;;;20.27;;
8831;SDS011;4452;50.756;4.472;2023-05-14T12:02:03;28.52;;;20.73;;
8831;SDS011;4452;50.756;4.472;2023-05-14T12:04:32;21.08;;;18.83;;
8831;SDS011;4452;50.756;4.472;2023-05-14T12:06:59;28.88;;;18.42;;
8831;SDS011;4452;50.756;4.472;2023-05-14T12:09:34;27.08;;;18.77;;
8831;SDS011;4452;50.756;4.472;2023-05-14T12:12:06;30.75;;;18.55;;
8831;SDS011;4452;50.756;4.472;2023-05-14T12:14:36;32.47;;;19.65;;
8831;SDS011;4452;50.756;4.472;2023-05-14T12:17:14;24.92;;;18.63;;
8831;SDS011;4452;50.756;4.472;2023-05-14T12:19:44;23.50;;;18.33;;
8831;SDS011;4452;50.756;4.472;2023-05-14T12:22:18;22.90;;;18.02;;
8831;SDS011;4452;50.756;4.472;2023-05-14T12:24:55;25.63;;;18.55;;
8831;SDS011;4452;50.756;4.472;2023-05-14T12:27:23;21.92;;;18.35;;
8831;SDS011;4452;50.756;4.472;2023-05-14T12:29:56;23.65;;;18.80;;
8831;SDS011;4452;50.756;4.472;2023-05-14T12:32:27;26.92;;;19.60;;
8831;SDS011;4452;50.756;4.472;2023-05-14T12:34:55;26.65;;;19.35;;
8831;SDS011;4452;50.756;4.472;2023-05-14T12:37:20;24.05;;;18.95;;
8831;SDS011;4452;50.756;4.472;2023-05-14T12:39:46;24.83;;;18.52;;
8831;SDS011;4452;50.756;4.472;2023-05-14T12:42:13;23.23;;;16.90;;
8831;SDS011;4452;50.756;4.472;2023-05-14T12:44:39;28.17;;;18.35;;
8831;SDS011;4452;50.756;4.472;2023-05-14T12:47:05;30.17;;;19.58;;
8831;SDS011;4452;50.756;4.472;2023-05-14T12:49:31;26.63;;;18.65;;
8831;SDS011;4452;50.756;4.472;2023-05-14T12:51:56;22.83;;;18.25;;
8831;SDS011;4452;50.756;4.472;2023-05-14T12:54:22;25.83;;;20.02;;
8831;SDS011;4452;50.756;4.472;2023-05-14T12:56:48;30.08;;;19.67;;
8831;SDS011;4452;50.756;4.472;2023-05-14T12:59:13;27.38;;;18.63;;
8831;SDS011;4452;50.756;4.472;2023-05-14T13:01:40;20.55;;;16.90;;
8831;SDS011;4452;50.756;4.472;2023-05-14T13:04:05;24.70;;;17.55;;
8831;SDS011;4452;50.756;4.472;2023-05-14T13:06:32;21.08;;;16.83;;
8831;SDS011;4452;50.756;4.472;2023-05-14T13:08:57;22.92;;;16.10;;
8831;SDS011;4452;50.756;4.472;2023-05-14T13:11:25;25.98;;;18.13;;
8831;SDS011;4452;50.756;4.472;2023-05-14T13:13:53;22.42;;;18.30;;
8831;SDS011;4452;50.756;4.472;2023-05-14T13:16:19;26.70;;;18.75;;
8831;SDS011;4452;50.756;4.472;2023-05-14T13:18:45;24.33;;;18.17;;
8831;SDS011;4452;50.756;4.472;2023-05-14T13:21:10;22.02;;;17.30;;
8831;SDS011;4452;50.756;4.472;2023-05-14T13:23:36;22.50;;;16.58;;
8831;SDS011;4452;50.756;4.472;2023-05-14T13:26:02;21.42;;;16.83;;
8831;SDS011;4452;50.756;4.472;2023-05-14T13:28:28;26.63;;;16.85;;
8831;SDS011;4452;50.756;4.472;2023-05-14T13:33:31;21.02;;;16.60;;
8831;SDS011;4452;50.756;4.472;2023-05-14T13:36:00;27.60;;;18.65;;
8831;SDS011;4452;50.756;4.472;2023-05-14T13:38:26;24.00;;;16.55;;
8831;SDS011;4452;50.756;4.472;2023-05-14T13:40:51;20.42;;;16.52;;
8831;SDS011;4452;50.756;4.472;2023-05-14T13:43:18;23.23;;;15.32;;
8831;SDS011;4452;50.756;4.472;2023-05-14T13:45:44;16.92;;;14.70;;
8831;SDS011;4452;50.756;4.472;2023-05-14T13:48:09;20.70;;;13.82;;
8831;SDS011;4452;50.756;4.472;2023-05-14T13:50:35;17.13;;;12.98;;
8831;SDS011;4452;50.756;4.472;2023-05-14T13:53:01;15.52;;;13.10;;
8831;SDS011;4452;50.756;4.472;2023-05-14T13:55:26;16.65;;;12.63;;
8831;SDS011;4452;50.756;4.472;2023-05-14T13:57:52;17.95;;;11.80;;
8831;SDS011;4452;50.756;4.472;2023-05-14T14:00:18;16.63;;;12.00;;
8831;SDS011;4452;50.756;4.472;2023-05-14T14:02:43;22.88;;;14.40;;
8831;SDS011;4452;50.756;4.472;2023-05-14T14:05:09;21.92;;;14.55;;
8831;SDS011;4452;50.756;4.472;2023-05-14T14:07:35;17.92;;;15.25;;
8831;SDS011;4452;50.756;4.472;2023-05-14T14:10:01;20.02;;;14.48;;
8831;SDS011;4452;50.756;4.472;2023-05-14T14:12:26;18.52;;;14.40;;
8831;SDS011;4452;50.756;4.472;2023-05-14T14:14:52;20.20;;;15.10;;
8831;SDS011;4452;50.756;4.472;2023-05-14T14:17:18;19.90;;;13.60;;
8831;SDS011;4452;50.756;4.472;2023-05-14T14:19:43;21.75;;;15.15;;
8831;SDS011;4452;50.756;4.472;2023-05-14T14:22:09;14.88;;;12.45;;
8831;SDS011;4452;50.756;4.472;2023-05-14T14:24:36;16.98;;;12.30;;
8831;SDS011;4452;50.756;4.472;2023-05-14T14:27:02;18.08;;;11.77;;
8831;SDS011;4452;50.756;4.472;2023-05-14T14:29:28;18.88;;;12.75;;
8831;SDS011;4452;50.756;4.472;2023-05-14T14:31:55;23.95;;;12.95;;
8831;SDS011;4452;50.756;4.472;2023-05-14T14:34:21;21.02;;;13.63;;
8831;SDS011;4452;50.756;4.472;2023-05-14T14:36:46;18.50;;;12.80;;
8831;SDS011;4452;50.756;4.472;2023-05-14T14:39:12;15.32;;;12.27;;
8831;SDS011;4452;50.756;4.472;2023-05-14T14:41:38;16.02;;;12.73;;
8831;SDS011;4452;50.756;4.472;2023-05-14T14:44:04;17.30;;;13.07;;
8831;SDS011;4452;50.756;4.472;2023-05-14T14:46:30;17.27;;;12.40;;
8831;SDS011;4452;50.756;4.472;2023-05-14T14:48:56;13.50;;;12.05;;
8831;SDS011;4452;50.756;4.472;2023-05-14T14:51:22;16.55;;;12.43;;
8831;SDS011;4452;50.756;4.472;2023-05-14T14:53:47;16.55;;;11.65;;
8831;SDS011;4452;50.756;4.472;2023-05-14T14:56:13;14.10;;;11.88;;
8831;SDS011;4452;50.756;4.472;2023-05-14T14:58:39;13.60;;;11.48;;
8831;SDS011;4452;50.756;4.472;2023-05-14T15:01:05;12.77;;;11.45;;
8831;SDS011;4452;50.756;4.472;2023-05-14T15:03:30;14.30;;;11.30;;
8831;SDS011;4452;50.756;4.472;2023-05-14T15:05:56;17.10;;;12.70;;